sensor_id;sensor_type;location;lat;lon;timestamp;pressure;altitude;pressure_sealevel;temperature;humidity
58072;BME280;60383;46.626;18.866;2024-01-16T00:02:21;99448.75;;;0.86;97.20
58072;BME280;60383;46.626;18.866;2024-01-16T00:04:47;99448.66;;;0.88;97.77
58072;BME280;60383;46.626;18.866;2024-01-16T00:07:12;99441.41;;;0.88;98.03
58072;BME280;60383;46.626;18.866;2024-01-16T00:09:38;99443.13;;;0.89;97.90
58072;BME280;60383;46.626;18.866;2024-01-16T00:12:03;99444.66;;;0.69;97.82
58072;BME280;60383;46.626;18.866;2024-01-16T00:14:29;99449.34;;;0.78;98.05
58072;BME280;60383;46.626;18.866;2024-01-16T00:16:54;99458.38;;;1.13;96.75
58072;BME280;60383;46.626;18.866;2024-01-16T00:19:20;99464.13;;;1.31;95.96
58072;BME280;60383;46.626;18.866;2024-01-16T00:21:45;99478.50;;;1.43;94.94
58072;BME280;60383;46.626;18.866;2024-01-16T00:24:12;99498.84;;;1.36;94.93
58072;BME280;60383;46.626;18.866;2024-01-16T00:26:37;99481.19;;;1.43;94.92
58072;BME280;60383;46.626;18.866;2024-01-16T00:29:03;99489.25;;;1.20;95.78
58072;BME280;60383;46.626;18.866;2024-01-16T00:31:28;99492.06;;;1.19;96.33
58072;BME280;60383;46.626;18.866;2024-01-16T00:33:54;99487.91;;;1.15;97.77
58072;BME280;60383;46.626;18.866;2024-01-16T00:36:19;99501.03;;;1.19;97.40
58072;BME280;60383;46.626;18.866;2024-01-16T00:38:45;99514.75;;;1.27;96.46
58072;BME280;60383;46.626;18.866;2024-01-16T00:41:12;99514.63;;;1.18;97.00
58072;BME280;60383;46.626;18.866;2024-01-16T00:43:39;99523.34;;;1.21;96.97
58072;BME280;60383;46.626;18.866;2024-01-16T00:46:05;99525.28;;;1.08;98.33
58072;BME280;60383;46.626;18.866;2024-01-16T00:48:30;99544.28;;;1.06;98.43
58072;BME280;60383;46.626;18.866;2024-01-16T00:50:56;99537.72;;;1.22;96.42
58072;BME280;60383;46.626;18.866;2024-01-16T00:53:21;99550.31;;;1.10;95.68
58072;BME280;60383;46.626;18.866;2024-01-16T00:55:46;99543.94;;;1.22;95.56
58072;BME280;60383;46.626;18.866;2024-01-16T00:58:12;99542.13;;;0.87;96.59
58072;BME280;60383;46.626;18.866;2024-01-16T01:00:37;99540.84;;;1.04;96.04
58072;BME280;60383;46.626;18.866;2024-01-16T01:03:04;99539.09;;;0.92;96.66
58072;BME280;60383;46.626;18.866;2024-01-16T01:05:29;99557.66;;;0.84;97.03
58072;BME280;60383;46.626;18.866;2024-01-16T01:07:56;99551.47;;;0.94;97.20
58072;BME280;60383;46.626;18.866;2024-01-16T01:10:21;99553.94;;;0.98;96.29
58072;BME280;60383;46.626;18.866;2024-01-16T01:12:47;99562.88;;;1.34;94.68
58072;BME280;60383;46.626;18.866;2024-01-16T01:15:12;99566.63;;;1.20;95.05
58072;BME280;60383;46.626;18.866;2024-01-16T01:17:39;99571.13;;;1.08;96.21
58072;BME280;60383;46.626;18.866;2024-01-16T01:20:06;99561.69;;;1.02;95.89
58072;BME280;60383;46.626;18.866;2024-01-16T01:22:32;99564.31;;;0.91;96.71
58072;BME280;60383;46.626;18.866;2024-01-16T01:24:57;99573.22;;;0.80;97.90
58072;BME280;60383;46.626;18.866;2024-01-16T01:27:23;99566.03;;;0.92;97.54
58072;BME280;60383;46.626;18.866;2024-01-16T01:29:48;99572.34;;;1.04;97.39
58072;BME280;60383;46.626;18.866;2024-01-16T01:32:13;99567.94;;;1.03;97.49
58072;BME280;60383;46.626;18.866;2024-01-16T01:34:41;99595.88;;;1.02;97.13
58072;BME280;60383;46.626;18.866;2024-01-16T01:37:07;99603.41;;;0.85;97.07
58072;BME280;60383;46.626;18.866;2024-01-16T01:39:32;99610.88;;;0.82;98.19
58072;BME280;60383;46.626;18.866;2024-01-16T01:41:58;99621.47;;;0.72;99.11
58072;BME280;60383;46.626;18.866;2024-01-16T01:44:23;99632.47;;;0.69;99.04
58072;BME280;60383;46.626;18.866;2024-01-16T01:46:50;99640.34;;;0.72;99.13
58072;BME280;60383;46.626;18.866;2024-01-16T01:49:16;99629.47;;;0.60;99.72
58072;BME280;60383;46.626;18.866;2024-01-16T01:51:42;99626.75;;;0.73;99.55
58072;BME280;60383;46.626;18.866;2024-01-16T01:54:09;99626.47;;;0.89;98.21
58072;BME280;60383;46.626;18.866;2024-01-16T01:56:36;99627.69;;;0.85;99.17
58072;BME280;60383;46.626;18.866;2024-01-16T01:59:02;99625.16;;;0.95;98.50
58072;BME280;60383;46.626;18.866;2024-01-16T02:01:30;99630.16;;;1.00;98.34
58072;BME280;60383;46.626;18.866;2024-01-16T02:03:57;99627.59;;;0.98;98.09
58072;BME280;60383;46.626;18.866;2024-01-16T02:06:24;99633.00;;;0.98;98.35
58072;BME280;60383;46.626;18.866;2024-01-16T02:08:51;99629.03;;;0.91;98.32
58072;BME280;60383;46.626;18.866;2024-01-16T02:11:16;99625.34;;;0.68;99.60
58072;BME280;60383;46.626;18.866;2024-01-16T02:13:42;99622.88;;;0.40;100.00
58072;BME280;60383;46.626;18.866;2024-01-16T02:16:24;99632.63;;;0.17;100.00
58072;BME280;60383;46.626;18.866;2024-01-16T02:18:50;99630.53;;;0.34;100.00
58072;BME280;60383;46.626;18.866;2024-01-16T02:21:25;99633.88;;;0.37;100.00
58072;BME280;60383;46.626;18.866;2024-01-16T02:23:53;99642.50;;;0.29;100.00
58072;BME280;60383;46.626;18.866;2024-01-16T02:26:19;99649.06;;;0.38;100.00
58072;BME280;60383;46.626;18.866;2024-01-16T02:28:45;99646.88;;;0.56;100.00
58072;BME280;60383;46.626;18.866;2024-01-16T02:31:11;99661.50;;;0.52;100.00
58072;BME280;60383;46.626;18.866;2024-01-16T02:33:36;99666.00;;;0.27;100.00
58072;BME280;60383;46.626;18.866;2024-01-16T02:36:01;99658.72;;;0.54;100.00
58072;BME280;60383;46.626;18.866;2024-01-16T02:38:27;99660.03;;;0.35;100.00
58072;BME280;60383;46.626;18.866;2024-01-16T02:40:52;99657.72;;;0.30;100.00
58072;BME280;60383;46.626;18.866;2024-01-16T02:43:18;99657.91;;;0.27;100.00
58072;BME280;60383;46.626;18.866;2024-01-16T02:45:43;99668.28;;;0.08;100.00
58072;BME280;60383;46.626;18.866;2024-01-16T02:48:09;99672.22;;;0.41;100.00
58072;BME280;60383;46.626;18.866;2024-01-16T02:50:34;99671.19;;;0.30;100.00
58072;BME280;60383;46.626;18.866;2024-01-16T02:53:00;99681.06;;;0.30;100.00
58072;BME280;60383;46.626;18.866;2024-01-16T02:55:25;99687.53;;;0.14;100.00
58072;BME280;60383;46.626;18.866;2024-01-16T02:57:51;99677.97;;;0.23;100.00
58072;BME280;60383;46.626;18.866;2024-01-16T03:00:16;99685.06;;;0.37;100.00
58072;BME280;60383;46.626;18.866;2024-01-16T03:02:43;99694.41;;;0.31;100.00
58072;BME280;60383;46.626;18.866;2024-01-16T03:05:09;99702.75;;;0.28;100.00
58072;BME280;60383;46.626;18.866;2024-01-16T03:07:36;99705.44;;;0.28;100.00
58072;BME280;60383;46.626;18.866;2024-01-16T03:10:02;99704.25;;;0.20;100.00
58072;BME280;60383;46.626;18.866;2024-01-16T03:12:27;99712.75;;;0.01;100.00
58072;BME280;60383;46.626;18.866;2024-01-16T03:14:53;99720.22;;;0.10;100.00
58072;BME280;60383;46.626;18.866;2024-01-16T03:17:19;99718.69;;;-0.07;100.00
58072;BME280;60383;46.626;18.866;2024-01-16T03:19:44;99721.38;;;0.06;100.00
58072;BME280;60383;46.626;18.866;2024-01-16T03:22:10;99724.28;;;-0.10;100.00
58072;BME280;60383;46.626;18.866;2024-01-16T03:24:36;99728.81;;;-0.11;100.00
58072;BME280;60383;46.626;18.866;2024-01-16T03:27:01;99728.16;;;-0.02;100.00
58072;BME280;60383;46.626;18.866;2024-01-16T03:29:27;99727.81;;;-0.10;100.00
58072;BME280;60383;46.626;18.866;2024-01-16T03:31:52;99733.63;;;-0.16;100.00
58072;BME280;60383;46.626;18.866;2024-01-16T03:34:18;99733.75;;;-0.18;100.00
58072;BME280;60383;46.626;18.866;2024-01-16T03:36:44;99727.06;;;-0.25;100.00
58072;BME280;60383;46.626;18.866;2024-01-16T03:39:09;99734.78;;;-0.46;100.00
58072;BME280;60383;46.626;18.866;2024-01-16T03:41:35;99730.72;;;-0.26;100.00
58072;BME280;60383;46.626;18.866;2024-01-16T03:44:00;99729.97;;;-0.15;100.00
58072;BME280;60383;46.626;18.866;2024-01-16T03:46:26;99729.13;;;-0.15;100.00
58072;BME280;60383;46.626;18.866;2024-01-16T03:48:51;99737.41;;;-0.19;100.00
58072;BME280;60383;46.626;18.866;2024-01-16T03:51:17;99736.66;;;-0.21;100.00
58072;BME280;60383;46.626;18.866;2024-01-16T03:53:45;99748.06;;;-0.17;100.00
58072;BME280;60383;46.626;18.866;2024-01-16T03:56:10;99744.75;;;-0.08;100.00
58072;BME280;60383;46.626;18.866;2024-01-16T03:58:35;99753.00;;;-0.24;100.00
58072;BME280;60383;46.626;18.866;2024-01-16T04:01:01;99753.19;;;-0.27;100.00
58072;BME280;60383;46.626;18.866;2024-01-16T04:03:27;99756.78;;;-0.13;100.00
58072;BME280;60383;46.626;18.866;2024-01-16T04:05:52;99754.44;;;-0.05;100.00
58072;BME280;60383;46.626;18.866;2024-01-16T04:08:18;99767.81;;;0.09;99.57
58072;BME280;60383;46.626;18.866;2024-01-16T04:10:43;99769.84;;;0.06;99.17
58072;BME280;60383;46.626;18.866;2024-01-16T04:13:09;99770.28;;;-0.01;100.00
58072;BME280;60383;46.626;18.866;2024-01-16T04:15:37;99777.44;;;-0.27;100.00
58072;BME280;60383;46.626;18.866;2024-01-16T04:18:03;99774.13;;;-0.18;100.00
58072;BME280;60383;46.626;18.866;2024-01-16T04:20:28;99774.84;;;-0.28;100.00
58072;BME280;60383;46.626;18.866;2024-01-16T04:22:54;99781.41;;;-0.33;100.00
58072;BME280;60383;46.626;18.866;2024-01-16T04:25:19;99783.53;;;-0.38;100.00
58072;BME280;60383;46.626;18.866;2024-01-16T04:27:45;99792.72;;;-0.55;100.00
58072;BME280;60383;46.626;18.866;2024-01-16T04:30:11;99795.03;;;-0.49;100.00
58072;BME280;60383;46.626;18.866;2024-01-16T04:32:37;99798.09;;;-0.55;100.00
58072;BME280;60383;46.626;18.866;2024-01-16T04:35:03;99801.56;;;-0.53;100.00
58072;BME280;60383;46.626;18.866;2024-01-16T04:37:29;99801.88;;;-0.30;100.00
58072;BME280;60383;46.626;18.866;2024-01-16T04:39:54;99807.63;;;-0.49;100.00
58072;BME280;60383;46.626;18.866;2024-01-16T04:42:20;99813.25;;;-0.39;100.00
58072;BME280;60383;46.626;18.866;2024-01-16T04:44:45;99810.00;;;-0.44;100.00
58072;BME280;60383;46.626;18.866;2024-01-16T04:47:11;99809.28;;;-0.34;100.00
58072;BME280;60383;46.626;18.866;2024-01-16T04:49:37;99811.44;;;-0.39;100.00
58072;BME280;60383;46.626;18.866;2024-01-16T04:52:02;99811.38;;;-0.52;100.00
58072;BME280;60383;46.626;18.866;2024-01-16T04:54:28;99819.16;;;-0.34;100.00
58072;BME280;60383;46.626;18.866;2024-01-16T04:56:54;99822.38;;;-0.42;100.00
58072;BME280;60383;46.626;18.866;2024-01-16T04:59:19;99832.59;;;-0.47;100.00
58072;BME280;60383;46.626;18.866;2024-01-16T05:01:45;99830.69;;;-0.45;100.00
58072;BME280;60383;46.626;18.866;2024-01-16T05:04:11;99835.41;;;-0.49;100.00
58072;BME280;60383;46.626;18.866;2024-01-16T05:06:36;99838.28;;;-0.52;100.00
58072;BME280;60383;46.626;18.866;2024-01-16T05:09:02;99848.56;;;-0.58;100.00
58072;BME280;60383;46.626;18.866;2024-01-16T05:11:28;99857.03;;;-0.65;100.00
58072;BME280;60383;46.626;18.866;2024-01-16T05:13:54;99849.34;;;-0.56;100.00
58072;BME280;60383;46.626;18.866;2024-01-16T05:16:26;99853.91;;;-0.44;100.00
58072;BME280;60383;46.626;18.866;2024-01-16T05:18:52;99862.78;;;-0.56;100.00
58072;BME280;60383;46.626;18.866;2024-01-16T05:21:18;99860.56;;;-0.50;100.00
58072;BME280;60383;46.626;18.866;2024-01-16T05:23:43;99862.63;;;-0.68;100.00
58072;BME280;60383;46.626;18.866;2024-01-16T05:26:09;99854.25;;;-0.63;100.00
58072;BME280;60383;46.626;18.866;2024-01-16T05:28:34;99855.34;;;-0.66;100.00
58072;BME280;60383;46.626;18.866;2024-01-16T05:31:00;99861.06;;;-0.57;100.00
58072;BME280;60383;46.626;18.866;2024-01-16T05:33:25;99857.91;;;-0.64;100.00
58072;BME280;60383;46.626;18.866;2024-01-16T05:35:51;99862.06;;;-0.73;100.00
58072;BME280;60383;46.626;18.866;2024-01-16T05:38:16;99871.84;;;-0.72;100.00
58072;BME280;60383;46.626;18.866;2024-01-16T05:40:43;99876.59;;;-1.04;100.00
58072;BME280;60383;46.626;18.866;2024-01-16T05:43:08;99872.06;;;-0.75;100.00
58072;BME280;60383;46.626;18.866;2024-01-16T05:45:34;99870.59;;;-0.66;100.00
58072;BME280;60383;46.626;18.866;2024-01-16T05:47:59;99873.31;;;-0.81;100.00
58072;BME280;60383;46.626;18.866;2024-01-16T05:50:25;99876.94;;;-0.82;100.00
58072;BME280;60383;46.626;18.866;2024-01-16T05:52:50;99887.25;;;-1.03;100.00
58072;BME280;60383;46.626;18.866;2024-01-16T05:55:16;99888.38;;;-0.92;100.00
58072;BME280;60383;46.626;18.866;2024-01-16T05:57:41;99885.81;;;-1.08;100.00
58072;BME280;60383;46.626;18.866;2024-01-16T06:00:09;99894.91;;;-0.82;100.00
58072;BME280;60383;46.626;18.866;2024-01-16T06:02:34;99902.22;;;-0.99;100.00
58072;BME280;60383;46.626;18.866;2024-01-16T06:05:00;99901.94;;;-0.79;100.00
58072;BME280;60383;46.626;18.866;2024-01-16T06:07:25;99915.34;;;-0.65;99.69
58072;BME280;60383;46.626;18.866;2024-01-16T06:09:51;99912.28;;;-0.73;99.62
58072;BME280;60383;46.626;18.866;2024-01-16T06:12:16;99913.75;;;-0.82;100.00
58072;BME280;60383;46.626;18.866;2024-01-16T06:14:42;99912.22;;;-0.86;100.00
58072;BME280;60383;46.626;18.866;2024-01-16T06:17:08;99917.66;;;-0.88;99.70
58072;BME280;60383;46.626;18.866;2024-01-16T06:19:33;99932.56;;;-0.82;99.30
58072;BME280;60383;46.626;18.866;2024-01-16T06:21:59;99928.91;;;-0.95;99.29
58072;BME280;60383;46.626;18.866;2024-01-16T06:24:25;99931.22;;;-1.04;99.84
58072;BME280;60383;46.626;18.866;2024-01-16T06:26:50;99937.94;;;-1.11;100.00
58072;BME280;60383;46.626;18.866;2024-01-16T06:29:16;99948.41;;;-0.77;98.96
58072;BME280;60383;46.626;18.866;2024-01-16T06:31:41;99938.13;;;-0.85;98.27
58072;BME280;60383;46.626;18.866;2024-01-16T06:34:07;99947.91;;;-0.70;97.62
58072;BME280;60383;46.626;18.866;2024-01-16T06:36:32;99954.25;;;-0.71;96.29
58072;BME280;60383;46.626;18.866;2024-01-16T06:38:58;99963.97;;;-0.12;94.06
58072;BME280;60383;46.626;18.866;2024-01-16T06:41:23;99964.28;;;-0.17;94.18
58072;BME280;60383;46.626;18.866;2024-01-16T06:43:49;99981.31;;;-0.30;94.42
58072;BME280;60383;46.626;18.866;2024-01-16T06:46:14;99980.84;;;-0.37;94.56
58072;BME280;60383;46.626;18.866;2024-01-16T06:48:40;99978.81;;;-0.19;94.47
58072;BME280;60383;46.626;18.866;2024-01-16T06:51:06;99996.00;;;-0.07;93.85
58072;BME280;60383;46.626;18.866;2024-01-16T06:53:33;100005.34;;;-0.27;94.07
58072;BME280;60383;46.626;18.866;2024-01-16T06:55:58;100010.94;;;0.11;93.82
58072;BME280;60383;46.626;18.866;2024-01-16T06:58:24;100007.03;;;0.57;92.04
58072;BME280;60383;46.626;18.866;2024-01-16T07:00:49;100020.03;;;1.30;87.38
58072;BME280;60383;46.626;18.866;2024-01-16T07:03:15;100013.06;;;1.90;85.91
58072;BME280;60383;46.626;18.866;2024-01-16T07:05:40;100011.81;;;2.80;80.30
58072;BME280;60383;46.626;18.866;2024-01-16T07:08:07;100007.53;;;3.81;75.68
58072;BME280;60383;46.626;18.866;2024-01-16T07:10:33;99999.25;;;5.03;70.02
58072;BME280;60383;46.626;18.866;2024-01-16T07:12:59;100001.13;;;5.85;66.22
58072;BME280;60383;46.626;18.866;2024-01-16T07:15:25;100008.19;;;5.67;66.16
58072;BME280;60383;46.626;18.866;2024-01-16T07:17:51;100021.84;;;4.38;68.32
58072;BME280;60383;46.626;18.866;2024-01-16T07:20:16;100015.28;;;3.86;72.14
58072;BME280;60383;46.626;18.866;2024-01-16T07:22:42;100024.63;;;2.89;76.24
58072;BME280;60383;46.626;18.866;2024-01-16T07:25:07;100020.97;;;2.42;79.49
58072;BME280;60383;46.626;18.866;2024-01-16T07:27:33;100022.84;;;2.04;81.14
58072;BME280;60383;46.626;18.866;2024-01-16T07:30:00;100030.81;;;1.68;82.53
58072;BME280;60383;46.626;18.866;2024-01-16T07:32:25;100031.75;;;2.54;80.01
58072;BME280;60383;46.626;18.866;2024-01-16T07:34:51;100032.78;;;5.13;70.31
58072;BME280;60383;46.626;18.866;2024-01-16T07:37:18;100026.88;;;6.32;65.32
58072;BME280;60383;46.626;18.866;2024-01-16T07:39:43;100045.38;;;7.46;61.16
58072;BME280;60383;46.626;18.866;2024-01-16T07:42:09;100043.06;;;7.61;58.87
58072;BME280;60383;46.626;18.866;2024-01-16T07:44:34;100056.47;;;7.25;58.61
58072;BME280;60383;46.626;18.866;2024-01-16T07:47:00;100050.00;;;8.21;56.75
58072;BME280;60383;46.626;18.866;2024-01-16T07:49:25;100035.38;;;9.04;54.22
58072;BME280;60383;46.626;18.866;2024-01-16T07:51:51;100044.75;;;8.83;54.83
58072;BME280;60383;46.626;18.866;2024-01-16T07:54:17;100046.69;;;9.27;53.52
58072;BME280;60383;46.626;18.866;2024-01-16T07:56:42;100053.47;;;9.23;53.52
58072;BME280;60383;46.626;18.866;2024-01-16T07:59:08;100056.72;;;9.97;50.56
58072;BME280;60383;46.626;18.866;2024-01-16T08:01:33;100060.06;;;7.92;55.04
58072;BME280;60383;46.626;18.866;2024-01-16T08:03:59;100085.13;;;7.19;58.42
58072;BME280;60383;46.626;18.866;2024-01-16T08:06:24;100082.84;;;9.03;54.10
58072;BME280;60383;46.626;18.866;2024-01-16T08:08:50;100081.25;;;10.42;49.64
58072;BME280;60383;46.626;18.866;2024-01-16T08:11:18;100084.72;;;10.52;49.55
58072;BME280;60383;46.626;18.866;2024-01-16T08:13:43;100082.94;;;11.02;47.80
58072;BME280;60383;46.626;18.866;2024-01-16T08:16:09;100087.69;;;10.32;48.24
58072;BME280;60383;46.626;18.866;2024-01-16T08:18:34;100085.16;;;10.82;47.31
58072;BME280;60383;46.626;18.866;2024-01-16T08:21:00;100105.44;;;11.30;46.31
58072;BME280;60383;46.626;18.866;2024-01-16T08:23:26;100101.44;;;12.24;44.23
58072;BME280;60383;46.626;18.866;2024-01-16T08:25:51;100105.59;;;11.87;44.92
58072;BME280;60383;46.626;18.866;2024-01-16T08:28:20;100098.41;;;11.69;44.97
58072;BME280;60383;46.626;18.866;2024-01-16T08:30:45;100097.31;;;10.79;46.19
58072;BME280;60383;46.626;18.866;2024-01-16T08:33:12;100100.66;;;11.32;46.28
58072;BME280;60383;46.626;18.866;2024-01-16T08:35:37;100102.34;;;11.09;46.84
58072;BME280;60383;46.626;18.866;2024-01-16T08:38:03;100110.53;;;11.00;46.57
58072;BME280;60383;46.626;18.866;2024-01-16T08:40:30;100112.06;;;10.86;47.02
58072;BME280;60383;46.626;18.866;2024-01-16T08:42:55;100126.88;;;10.67;47.84
58072;BME280;60383;46.626;18.866;2024-01-16T08:45:21;100119.16;;;10.28;49.20
58072;BME280;60383;46.626;18.866;2024-01-16T08:47:47;100125.59;;;10.45;48.80
58072;BME280;60383;46.626;18.866;2024-01-16T08:50:13;100128.28;;;10.37;49.29
58072;BME280;60383;46.626;18.866;2024-01-16T08:52:38;100130.72;;;10.48;48.86
58072;BME280;60383;46.626;18.866;2024-01-16T08:55:04;100136.47;;;10.63;48.67
58072;BME280;60383;46.626;18.866;2024-01-16T08:57:30;100140.31;;;10.44;49.17
58072;BME280;60383;46.626;18.866;2024-01-16T08:59:55;100137.81;;;9.80;50.84
58072;BME280;60383;46.626;18.866;2024-01-16T09:02:21;100145.72;;;9.83;51.80
58072;BME280;60383;46.626;18.866;2024-01-16T09:04:47;100136.59;;;10.01;51.61
58072;BME280;60383;46.626;18.866;2024-01-16T09:07:16;100144.84;;;9.20;52.35
58072;BME280;60383;46.626;18.866;2024-01-16T09:09:43;100142.28;;;8.35;54.01
58072;BME280;60383;46.626;18.866;2024-01-16T09:12:09;100143.16;;;8.26;55.16
58072;BME280;60383;46.626;18.866;2024-01-16T09:14:34;100151.88;;;8.39;54.43
58072;BME280;60383;46.626;18.866;2024-01-16T09:17:00;100154.44;;;8.13;55.06
58072;BME280;60383;46.626;18.866;2024-01-16T09:19:25;100152.75;;;8.40;54.51
58072;BME280;60383;46.626;18.866;2024-01-16T09:21:51;100150.84;;;8.78;55.08
58072;BME280;60383;46.626;18.866;2024-01-16T09:24:16;100148.69;;;8.44;54.57
58072;BME280;60383;46.626;18.866;2024-01-16T09:26:42;100148.53;;;8.55;54.88
58072;BME280;60383;46.626;18.866;2024-01-16T09:29:09;100150.31;;;8.46;54.66
58072;BME280;60383;46.626;18.866;2024-01-16T09:31:35;100145.44;;;8.68;55.07
58072;BME280;60383;46.626;18.866;2024-01-16T09:34:01;100134.66;;;8.94;55.91
58072;BME280;60383;46.626;18.866;2024-01-16T09:36:27;100133.09;;;9.10;54.08
58072;BME280;60383;46.626;18.866;2024-01-16T09:38:52;100126.06;;;9.07;52.24
58072;BME280;60383;46.626;18.866;2024-01-16T09:41:18;100120.84;;;8.96;53.50
58072;BME280;60383;46.626;18.866;2024-01-16T09:43:44;100129.63;;;8.72;53.16
58072;BME280;60383;46.626;18.866;2024-01-16T09:46:10;100134.38;;;8.32;54.21
58072;BME280;60383;46.626;18.866;2024-01-16T09:48:36;100123.66;;;8.58;54.50
58072;BME280;60383;46.626;18.866;2024-01-16T09:51:02;100118.25;;;8.49;54.45
58072;BME280;60383;46.626;18.866;2024-01-16T09:53:28;100131.69;;;8.60;53.26
58072;BME280;60383;46.626;18.866;2024-01-16T09:55:54;100119.00;;;8.69;53.67
58072;BME280;60383;46.626;18.866;2024-01-16T09:58:23;100121.03;;;8.67;52.25
58072;BME280;60383;46.626;18.866;2024-01-16T10:00:49;100117.94;;;8.52;53.33
58072;BME280;60383;46.626;18.866;2024-01-16T10:03:15;100129.69;;;8.62;52.25
58072;BME280;60383;46.626;18.866;2024-01-16T10:05:42;100136.63;;;8.09;53.54
58072;BME280;60383;46.626;18.866;2024-01-16T10:08:08;100134.97;;;7.78;54.90
58072;BME280;60383;46.626;18.866;2024-01-16T10:10:34;100138.22;;;8.02;54.66
58072;BME280;60383;46.626;18.866;2024-01-16T10:13:00;100144.84;;;7.99;54.99
58072;BME280;60383;46.626;18.866;2024-01-16T10:15:25;100145.72;;;7.90;54.63
58072;BME280;60383;46.626;18.866;2024-01-16T10:17:51;100150.53;;;8.15;54.72
58072;BME280;60383;46.626;18.866;2024-01-16T10:20:31;100153.38;;;8.24;54.46
58072;BME280;60383;46.626;18.866;2024-01-16T10:22:57;100155.88;;;8.45;53.43
58072;BME280;60383;46.626;18.866;2024-01-16T10:25:23;100156.16;;;8.52;53.50
58072;BME280;60383;46.626;18.866;2024-01-16T10:28:02;100161.13;;;8.66;51.18
58072;BME280;60383;46.626;18.866;2024-01-16T10:30:28;100155.72;;;8.84;51.35
58072;BME280;60383;46.626;18.866;2024-01-16T10:32:54;100159.94;;;8.78;52.30
58072;BME280;60383;46.626;18.866;2024-01-16T10:35:19;100156.16;;;8.42;52.47
58072;BME280;60383;46.626;18.866;2024-01-16T10:37:55;100156.16;;;8.42;52.38
58072;BME280;60383;46.626;18.866;2024-01-16T10:40:22;100161.38;;;8.73;51.59
58072;BME280;60383;46.626;18.866;2024-01-16T10:42:58;100155.88;;;8.45;51.97
58072;BME280;60383;46.626;18.866;2024-01-16T10:45:23;100150.75;;;7.84;52.87
58072;BME280;60383;46.626;18.866;2024-01-16T10:48:03;100147.81;;;7.58;53.52
58072;BME280;60383;46.626;18.866;2024-01-16T10:50:29;100153.69;;;7.44;54.15
58072;BME280;60383;46.626;18.866;2024-01-16T10:52:59;100146.06;;;7.28;55.11
58072;BME280;60383;46.626;18.866;2024-01-16T10:55:27;100149.78;;;7.66;56.12
58072;BME280;60383;46.626;18.866;2024-01-16T10:57:55;100152.97;;;7.42;56.86
58072;BME280;60383;46.626;18.866;2024-01-16T11:00:22;100154.38;;;7.46;56.44
58072;BME280;60383;46.626;18.866;2024-01-16T11:03:06;100156.84;;;7.49;56.68
58072;BME280;60383;46.626;18.866;2024-01-16T11:05:33;100156.25;;;7.06;56.34
58072;BME280;60383;46.626;18.866;2024-01-16T11:07:59;100161.47;;;6.68;58.38
58072;BME280;60383;46.626;18.866;2024-01-16T11:10:29;100151.91;;;6.94;57.65
58072;BME280;60383;46.626;18.866;2024-01-16T11:13:00;100151.50;;;7.18;55.29
58072;BME280;60383;46.626;18.866;2024-01-16T11:15:28;100147.50;;;7.32;55.25
58072;BME280;60383;46.626;18.866;2024-01-16T11:17:55;100148.94;;;7.36;53.75
58072;BME280;60383;46.626;18.866;2024-01-16T11:20:22;100146.06;;;7.18;56.21
58072;BME280;60383;46.626;18.866;2024-01-16T11:22:49;100140.16;;;6.93;57.34
58072;BME280;60383;46.626;18.866;2024-01-16T11:25:17;100135.72;;;7.12;56.89
58072;BME280;60383;46.626;18.866;2024-01-16T11:27:45;100134.31;;;7.27;54.72
58072;BME280;60383;46.626;18.866;2024-01-16T11:30:30;100131.44;;;7.39;53.00
58072;BME280;60383;46.626;18.866;2024-01-16T11:32:56;100132.59;;;7.07;54.27
58072;BME280;60383;46.626;18.866;2024-01-16T11:35:34;100127.97;;;7.07;55.46
58072;BME280;60383;46.626;18.866;2024-01-16T11:38:19;100124.00;;;7.01;54.08
58072;BME280;60383;46.626;18.866;2024-01-16T11:40:47;100126.53;;;6.74;53.13
58072;BME280;60383;46.626;18.866;2024-01-16T11:45:57;100124.81;;;6.82;54.46
58072;BME280;60383;46.626;18.866;2024-01-16T11:48:24;100123.25;;;6.99;56.82
58072;BME280;60383;46.626;18.866;2024-01-16T11:50:50;100127.72;;;7.00;56.13
58072;BME280;60383;46.626;18.866;2024-01-16T12:01:36;100133.81;;;6.73;57.69
58072;BME280;60383;46.626;18.866;2024-01-16T12:04:05;100132.78;;;6.54;57.72
58072;BME280;60383;46.626;18.866;2024-01-16T12:06:31;100128.31;;;6.53;58.37
58072;BME280;60383;46.626;18.866;2024-01-16T12:09:16;100123.25;;;6.39;57.55
58072;BME280;60383;46.626;18.866;2024-01-16T12:11:56;100134.03;;;6.41;57.68
58072;BME280;60383;46.626;18.866;2024-01-16T12:14:22;100128.44;;;6.42;58.25
58072;BME280;60383;46.626;18.866;2024-01-16T12:16:48;100121.66;;;6.27;59.87
58072;BME280;60383;46.626;18.866;2024-01-16T12:19:13;100127.75;;;6.50;59.09
58072;BME280;60383;46.626;18.866;2024-01-16T12:21:41;100117.78;;;6.29;58.64
58072;BME280;60383;46.626;18.866;2024-01-16T12:24:07;100123.59;;;6.55;57.33
58072;BME280;60383;46.626;18.866;2024-01-16T12:26:32;100125.31;;;6.47;56.97
58072;BME280;60383;46.626;18.866;2024-01-16T12:28:58;100133.25;;;6.29;58.60
58072;BME280;60383;46.626;18.866;2024-01-16T12:31:24;100134.94;;;6.20;59.10
58072;BME280;60383;46.626;18.866;2024-01-16T12:33:50;100132.84;;;6.02;59.96
58072;BME280;60383;46.626;18.866;2024-01-16T12:36:17;100142.25;;;5.98;59.07
58072;BME280;60383;46.626;18.866;2024-01-16T12:38:42;100129.41;;;6.00;57.40
58072;BME280;60383;46.626;18.866;2024-01-16T12:41:09;100128.06;;;5.73;58.76
58072;BME280;60383;46.626;18.866;2024-01-16T12:43:36;100130.19;;;5.70;57.20
58072;BME280;60383;46.626;18.866;2024-01-16T12:46:02;100129.19;;;5.71;57.33
58072;BME280;60383;46.626;18.866;2024-01-16T12:48:28;100137.03;;;5.64;57.27
58072;BME280;60383;46.626;18.866;2024-01-16T12:51:03;100125.97;;;5.56;57.45
58072;BME280;60383;46.626;18.866;2024-01-16T12:53:29;100137.50;;;5.69;58.13
58072;BME280;60383;46.626;18.866;2024-01-16T12:56:01;100128.31;;;5.28;55.59